createdAt,value
2023-05-03T00:00:04.555Z,6.85
2023-05-03T00:02:36.062Z,6.82
2023-05-03T00:05:06.107Z,6.70
2023-05-03T00:07:37.765Z,6.80
2023-05-03T00:10:07.117Z,5.80
2023-05-03T00:12:36.124Z,6.45
2023-05-03T00:15:05.390Z,7.35
2023-05-03T00:17:34.344Z,7.50
2023-05-03T00:20:05.086Z,7.18
2023-05-03T00:22:33.856Z,6.97
2023-05-03T00:25:04.927Z,6.30
2023-05-03T00:27:33.334Z,6.30
2023-05-03T00:30:03.591Z,7.18
2023-05-03T00:32:32.501Z,6.97
2023-05-03T00:35:01.114Z,6.97
2023-05-03T00:37:30.139Z,6.88
2023-05-03T00:39:59.144Z,6.63
2023-05-03T00:42:30.106Z,7.47
2023-05-03T00:44:58.579Z,7.47
2023-05-03T00:47:27.343Z,8.15
2023-05-03T00:49:55.771Z,7.97
2023-05-03T00:52:24.508Z,7.80
2023-05-03T00:54:53.738Z,8.13
2023-05-03T00:57:23.561Z,8.30
2023-05-03T00:59:54.849Z,9.35
2023-05-03T01:02:25.094Z,8.70
2023-05-03T01:04:55.169Z,9.02
2023-05-03T01:07:34.270Z,8.90
2023-05-03T01:10:18.361Z,7.90
2023-05-03T01:12:55.261Z,9.32
2023-05-03T01:15:41.594Z,8.88
2023-05-03T01:18:15.639Z,8.75
2023-05-03T01:20:48.244Z,8.52
2023-05-03T01:23:26.359Z,8.90
2023-05-03T01:25:58.935Z,8.60
2023-05-03T01:28:28.979Z,8.40
2023-05-03T01:30:59.527Z,8.25
2023-05-03T01:33:35.007Z,9.23
2023-05-03T01:36:14.338Z,8.70
2023-05-03T01:38:43.392Z,9.35
2023-05-03T01:41:15.285Z,8.73
2023-05-03T01:43:45.690Z,8.63
2023-05-03T01:46:16.062Z,9.30
2023-05-03T01:48:46.241Z,8.68
2023-05-03T01:51:14.519Z,8.52
2023-05-03T01:53:43.419Z,8.52
2023-05-03T01:56:13.508Z,8.27
2023-05-03T01:58:41.983Z,8.93
2023-05-03T02:01:11.678Z,8.38
2023-05-03T02:03:40.537Z,8.77
2023-05-03T02:06:09.875Z,9.55
2023-05-03T02:08:39.423Z,8.75
2023-05-03T02:11:08.345Z,8.65
2023-05-03T02:13:40.538Z,9.35
2023-05-03T02:16:09.902Z,8.70
2023-05-03T02:18:38.360Z,9.77
2023-05-03T02:21:07.156Z,10.65
2023-05-03T02:23:37.263Z,9.07
2023-05-03T02:26:07.067Z,9.10
2023-05-03T02:28:35.664Z,9.55
2023-05-03T02:31:08.661Z,8.90
2023-05-03T02:33:38.031Z,10.30
2023-05-03T02:36:07.044Z,9.60
2023-05-03T02:38:36.485Z,9.25
2023-05-03T02:41:04.937Z,10.13
2023-05-03T02:43:33.531Z,9.10
2023-05-03T02:46:02.224Z,10.13
2023-05-03T02:48:35.618Z,9.43
2023-05-03T02:51:04.547Z,10.27
2023-05-03T02:53:33.462Z,9.65
2023-05-03T02:56:06.842Z,10.60
2023-05-03T02:58:36.658Z,8.50
2023-05-03T03:01:07.207Z,9.30
2023-05-03T03:03:37.885Z,10.48
2023-05-03T03:06:06.963Z,10.00
2023-05-03T03:08:38.355Z,10.50
2023-05-03T03:11:08.221Z,9.85
2023-05-03T03:13:39.899Z,9.57
2023-05-03T03:16:11.177Z,10.38
2023-05-03T03:18:41.626Z,10.05
2023-05-03T03:21:10.350Z,10.23
2023-05-03T03:23:39.182Z,9.30
2023-05-03T03:26:07.693Z,9.93
2023-05-03T03:28:36.408Z,9.88
2023-05-03T03:31:10.469Z,10.35
2023-05-03T03:33:41.929Z,10.25
2023-05-03T03:36:16.757Z,9.63
2023-05-03T03:38:49.194Z,9.90
2023-05-03T03:41:17.564Z,9.90
2023-05-03T03:43:47.555Z,10.27
2023-05-03T03:46:20.110Z,10.30
2023-05-03T03:48:53.953Z,12.02
2023-05-03T03:51:25.532Z,11.07
2023-05-03T03:53:53.929Z,9.90
2023-05-03T03:56:25.738Z,10.20
2023-05-03T03:58:56.615Z,10.15
2023-05-03T04:01:26.936Z,9.23
2023-05-03T04:03:57.831Z,10.07
2023-05-03T04:06:29.082Z,10.77
2023-05-03T04:09:01.401Z,11.48
2023-05-03T04:11:32.299Z,10.50
2023-05-03T04:14:02.849Z,11.10
2023-05-03T04:16:32.950Z,10.13
2023-05-03T04:19:06.401Z,10.52
2023-05-03T04:21:37.910Z,9.43
2023-05-03T04:24:10.151Z,10.82
2023-05-03T04:26:38.592Z,9.68
2023-05-03T04:29:14.550Z,11.90
2023-05-03T04:31:45.186Z,9.50
2023-05-03T04:34:16.238Z,10.32
2023-05-03T04:36:49.361Z,9.73
2023-05-03T04:39:18.668Z,9.90
2023-05-03T04:41:49.270Z,8.85
2023-05-03T04:44:17.815Z,8.63
2023-05-03T04:46:49.442Z,7.85
2023-05-03T04:49:23.338Z,7.38
2023-05-03T04:51:53.308Z,9.00
2023-05-03T04:54:22.861Z,7.63
2023-05-03T04:56:52.739Z,7.13
2023-05-03T04:59:21.006Z,6.50
2023-05-03T05:01:53.219Z,6.80
2023-05-03T05:04:23.969Z,6.82
2023-05-03T05:06:54.226Z,6.40
2023-05-03T05:11:59.777Z,6.10
2023-05-03T05:14:36.744Z,6.13
2023-05-03T05:17:07.482Z,6.50
2023-05-03T05:19:38.852Z,6.47
2023-05-03T05:22:08.324Z,6.30
2023-05-03T05:24:52.407Z,6.40
2023-05-03T05:27:22.884Z,6.22
2023-05-03T05:29:54.605Z,6.63
2023-05-03T05:32:23.140Z,6.47
2023-05-03T05:34:55.374Z,7.05
2023-05-03T05:37:27.546Z,6.18
2023-05-03T05:40:00.793Z,6.72
2023-05-03T05:42:35.295Z,5.90
2023-05-03T05:45:05.460Z,6.20
2023-05-03T05:47:35.168Z,5.93
2023-05-03T05:50:17.031Z,5.93
2023-05-03T05:52:49.054Z,5.78
2023-05-03T05:55:19.746Z,5.38
2023-05-03T05:57:48.547Z,4.80
2023-05-03T06:00:21.637Z,4.55
2023-05-03T06:02:51.333Z,5.03
2023-05-03T06:05:25.111Z,4.97
2023-05-03T06:07:54.405Z,4.78
2023-05-03T06:10:23.120Z,4.47
2023-05-03T06:12:54.440Z,4.45
2023-05-03T06:15:26.908Z,4.95
2023-05-03T06:17:55.965Z,3.88
2023-05-03T06:20:26.738Z,4.85
2023-05-03T06:22:57.190Z,4.15
2023-05-03T06:25:26.684Z,4.15
2023-05-03T06:27:55.842Z,3.72
2023-05-03T06:30:28.653Z,4.28
2023-05-03T06:33:02.760Z,3.92
2023-05-03T06:35:33.807Z,3.75
2023-05-03T06:38:02.274Z,4.10
2023-05-03T06:40:30.735Z,4.30
2023-05-03T06:43:00.362Z,4.20
2023-05-03T06:45:46.436Z,3.85
2023-05-03T06:48:15.479Z,4.28
2023-05-03T06:50:45.352Z,3.83
2023-05-03T06:53:18.226Z,4.03
2023-05-03T06:55:47.220Z,3.78
2023-05-03T06:58:16.996Z,3.72
2023-05-03T07:00:45.674Z,3.78
2023-05-03T07:03:14.731Z,3.45
2023-05-03T07:05:46.245Z,3.42
2023-05-03T07:08:16.426Z,3.63
2023-05-03T07:10:47.274Z,3.40
2023-05-03T07:13:17.454Z,3.70
2023-05-03T07:15:46.623Z,3.60
2023-05-03T07:18:15.750Z,3.90
2023-05-03T07:20:46.533Z,3.97
2023-05-03T07:23:16.025Z,3.53
2023-05-03T07:25:46.264Z,4.13
2023-05-03T07:28:14.701Z,3.72
2023-05-03T07:30:43.905Z,3.60
2023-05-03T07:33:12.401Z,3.30
2023-05-03T07:35:40.957Z,3.38
2023-05-03T07:38:11.422Z,3.20
2023-05-03T07:40:41.731Z,2.95
2023-05-03T07:43:12.234Z,3.33
2023-05-03T07:45:40.877Z,2.88
2023-05-03T07:48:11.165Z,4.05
2023-05-03T07:50:42.765Z,3.17
2023-05-03T07:53:31.327Z,3.22
2023-05-03T07:55:59.545Z,3.17
2023-05-03T07:58:38.940Z,2.75
2023-05-03T08:01:08.991Z,3.22
2023-05-03T08:03:37.639Z,3.35
2023-05-03T08:06:07.253Z,2.88
2023-05-03T08:08:38.429Z,3.45
2023-05-03T08:11:06.581Z,3.35
2023-05-03T08:13:35.014Z,3.13
2023-05-03T08:16:03.332Z,3.40
2023-05-03T08:18:33.059Z,3.00
2023-05-03T08:21:01.435Z,2.88
2023-05-03T08:23:29.672Z,3.10
2023-05-03T08:26:06.752Z,3.30
2023-05-03T08:28:35.537Z,3.60
2023-05-03T08:31:05.467Z,3.30
2023-05-03T08:33:34.086Z,3.30
2023-05-03T08:36:03.087Z,2.90
2023-05-03T08:38:33.466Z,2.80
2023-05-03T08:41:12.029Z,3.38
2023-05-03T08:43:45.781Z,3.00
2023-05-03T08:46:15.018Z,2.97
2023-05-03T08:48:46.505Z,3.13
2023-05-03T08:51:16.004Z,2.67
2023-05-03T08:53:44.607Z,2.70
2023-05-03T08:56:25.115Z,2.92
2023-05-03T08:58:53.730Z,2.75
2023-05-03T09:01:24.069Z,2.92
2023-05-03T09:03:53.157Z,3.03
2023-05-03T09:06:26.009Z,3.08
2023-05-03T09:08:55.169Z,3.53
2023-05-03T09:11:29.340Z,2.50
2023-05-03T09:14:10.375Z,3.08
2023-05-03T09:16:41.075Z,3.20
2023-05-03T09:19:12.655Z,3.13
2023-05-03T09:21:43.524Z,3.15
2023-05-03T09:24:18.366Z,3.20
2023-05-03T09:26:50.865Z,3.20
2023-05-03T09:29:30.798Z,3.42
2023-05-03T09:32:05.557Z,3.10
2023-05-03T09:34:35.472Z,3.17
2023-05-03T09:37:05.639Z,2.78
2023-05-03T09:39:34.826Z,3.50
2023-05-03T09:42:13.127Z,3.47
2023-05-03T09:44:48.984Z,2.75
2023-05-03T09:47:18.758Z,2.80
2023-05-03T09:49:47.547Z,2.80
2023-05-03T09:52:17.375Z,3.08
2023-05-03T09:54:47.376Z,3.10
2023-05-03T09:57:18.026Z,2.83
2023-05-03T09:59:48.667Z,2.85
2023-05-03T10:02:18.161Z,2.70
2023-05-03T10:04:52.389Z,2.80
2023-05-03T10:09:52.388Z,3.17
2023-05-03T10:12:25.943Z,2.63
2023-05-03T10:14:56.658Z,2.47
2023-05-03T10:17:46.158Z,3.00
2023-05-03T10:20:24.381Z,3.13
2023-05-03T10:23:13.604Z,2.67
2023-05-03T10:26:15.028Z,3.20
2023-05-03T10:28:46.894Z,2.38
2023-05-03T10:31:47.311Z,2.28
2023-05-03T10:34:23.767Z,2.13
2023-05-03T10:36:54.164Z,2.20
2023-05-03T10:39:23.159Z,2.92
2023-05-03T10:42:01.549Z,2.15
2023-05-03T10:44:40.959Z,2.20
2023-05-03T10:47:16.243Z,2.55
2023-05-03T10:49:45.177Z,2.67
2023-05-03T10:52:57.024Z,2.00
2023-05-03T10:55:28.862Z,1.98
2023-05-03T10:57:59.271Z,2.17
2023-05-03T11:00:39.149Z,2.13
2023-05-03T11:03:55.344Z,2.15
2023-05-03T11:06:34.406Z,2.47
2023-05-03T11:09:06.091Z,2.30
2023-05-03T11:11:39.517Z,2.08
2023-05-03T11:14:08.839Z,2.90
2023-05-03T11:16:47.829Z,2.50
2023-05-03T11:19:18.843Z,2.05
2023-05-03T11:21:49.088Z,1.80
2023-05-03T11:24:17.899Z,2.38
2023-05-03T11:26:46.591Z,2.53
2023-05-03T11:29:17.790Z,2.15
2023-05-03T11:31:48.089Z,2.00
2023-05-03T11:34:17.318Z,2.33
2023-05-03T11:36:47.252Z,2.33
2023-05-03T11:39:19.653Z,1.88
2023-05-03T11:42:04.777Z,2.25
2023-05-03T11:47:03.854Z,2.03
2023-05-03T11:49:32.843Z,2.03
2023-05-03T11:52:02.064Z,1.77
2023-05-03T11:54:33.179Z,2.30
2023-05-03T11:57:13.643Z,2.40
2023-05-03T11:59:42.861Z,2.67
2023-05-03T12:02:15.276Z,1.80
2023-05-03T12:04:47.128Z,2.03
2023-05-03T12:07:19.684Z,1.73
2023-05-03T12:10:00.767Z,2.00
2023-05-03T12:12:44.069Z,2.20
2023-05-03T12:15:18.603Z,2.28
2023-05-03T12:17:50.892Z,2.50
2023-05-03T12:22:58.102Z,1.70
2023-05-03T12:25:33.083Z,1.92
2023-05-03T12:30:40.132Z,1.63
2023-05-03T12:33:21.731Z,1.85
2023-05-03T12:35:54.407Z,1.92
2023-05-03T12:38:25.217Z,2.00
2023-05-03T12:40:55.066Z,2.20
2023-05-03T12:43:24.132Z,1.63
2023-05-03T12:46:08.505Z,1.77
2023-05-03T12:48:46.213Z,1.50
2023-05-03T12:53:55.271Z,1.83
2023-05-03T12:56:25.876Z,1.80
2023-05-03T13:06:41.693Z,1.50
2023-05-03T13:09:20.072Z,1.92
2023-05-03T13:11:52.344Z,1.73
2023-05-03T13:14:21.603Z,1.20
2023-05-03T13:16:52.085Z,1.60
2023-05-03T13:19:25.072Z,1.73
2023-05-03T13:21:54.733Z,1.90
2023-05-03T13:24:25.340Z,1.40
2023-05-03T13:26:54.763Z,1.55
2023-05-03T13:29:24.349Z,1.55
2023-05-03T13:31:53.384Z,1.42
2023-05-03T13:34:24.445Z,1.70
2023-05-03T13:36:52.910Z,1.95
2023-05-03T13:42:48.861Z,1.30
2023-05-03T13:45:18.253Z,1.63
2023-05-03T13:48:14.101Z,1.52
2023-05-03T13:50:40.506Z,1.20
2023-05-03T13:53:09.494Z,1.95
2023-05-03T13:55:39.209Z,1.40
2023-05-03T13:58:09.561Z,1.40
2023-05-03T14:00:39.489Z,1.75
2023-05-03T14:03:08.144Z,1.50
2023-05-03T14:05:39.058Z,1.63
2023-05-03T14:08:11.405Z,1.30
2023-05-03T14:10:40.941Z,1.73
2023-05-03T14:13:09.785Z,1.20
2023-05-03T14:15:41.273Z,1.23
2023-05-03T14:18:11.147Z,1.42
2023-05-03T14:20:43.113Z,1.20
2023-05-03T14:23:16.330Z,1.30
2023-05-03T14:25:45.351Z,1.33
2023-05-03T14:28:14.575Z,1.95
2023-05-03T14:30:43.937Z,1.13
2023-05-03T14:33:14.177Z,1.40
2023-05-03T14:35:44.061Z,1.13
2023-05-03T14:38:12.654Z,1.33
2023-05-03T14:40:42.925Z,1.10
2023-05-03T14:43:11.439Z,1.48
2023-05-03T14:45:40.154Z,1.60
2023-05-03T14:48:10.216Z,1.40
2023-05-03T14:50:47.472Z,1.58
2023-05-03T14:53:18.155Z,1.73
2023-05-03T14:55:47.304Z,1.45
2023-05-03T14:58:16.504Z,1.35
2023-05-03T15:00:45.575Z,1.48
2023-05-03T15:03:14.538Z,1.48
2023-05-03T15:05:46.226Z,1.27
2023-05-03T15:08:18.107Z,1.90
2023-05-03T15:10:48.204Z,1.70
2023-05-03T15:13:17.568Z,1.50
2023-05-03T15:15:46.452Z,1.20
2023-05-03T15:18:15.664Z,1.42
2023-05-03T15:20:44.113Z,1.27
2023-05-03T15:23:14.232Z,2.03
2023-05-03T15:25:44.151Z,1.90
2023-05-03T15:28:14.824Z,1.75
2023-05-03T15:30:45.766Z,1.60
2023-05-03T15:33:17.568Z,1.92
2023-05-03T15:35:46.596Z,1.85
2023-05-03T15:38:22.590Z,1.42
2023-05-03T15:40:53.009Z,1.40
2023-05-03T15:43:23.315Z,1.77
2023-05-03T15:45:51.881Z,1.35
2023-05-03T15:48:20.676Z,1.77
2023-05-03T15:50:51.769Z,1.55
2023-05-03T15:53:20.937Z,1.50
2023-05-03T15:55:49.790Z,1.95
2023-05-03T15:58:23.530Z,1.90
2023-05-03T16:00:52.442Z,1.75
2023-05-03T16:03:22.526Z,1.80
2023-05-03T16:05:54.746Z,1.48
2023-05-03T16:08:26.510Z,1.48
2023-05-03T16:10:56.483Z,1.52
2023-05-03T16:13:27.629Z,1.55
2023-05-03T16:15:57.210Z,1.55
2023-05-03T16:18:27.280Z,1.40
2023-05-03T16:20:56.417Z,1.30
2023-05-03T16:23:25.132Z,1.30
2023-05-03T16:25:56.123Z,1.30
2023-05-03T16:28:28.536Z,1.40
2023-05-03T16:30:59.447Z,1.38
2023-05-03T16:33:28.508Z,1.40
2023-05-03T16:35:59.053Z,1.35
2023-05-03T16:38:30.921Z,1.67
2023-05-03T16:41:02.179Z,1.67
2023-05-03T16:43:34.228Z,1.23
2023-05-03T16:46:04.148Z,1.45
2023-05-03T16:48:38.191Z,1.90
2023-05-03T16:53:50.574Z,1.48
2023-05-03T16:56:21.985Z,1.27
2023-05-03T16:58:54.035Z,1.50
2023-05-03T17:01:33.442Z,1.85
2023-05-03T17:04:03.268Z,1.38
2023-05-03T17:06:33.511Z,1.70
2023-05-03T17:09:04.695Z,1.70
2023-05-03T17:11:33.708Z,1.40
2023-05-03T17:14:04.497Z,1.33
2023-05-03T17:16:37.904Z,1.40
2023-05-03T17:19:06.493Z,1.67
2023-05-03T17:21:35.252Z,1.50
2023-05-03T17:24:08.611Z,1.90
2023-05-03T17:26:37.360Z,2.17
2023-05-03T17:29:08.653Z,1.67
2023-05-03T17:31:37.341Z,1.80
2023-05-03T17:34:07.489Z,1.70
2023-05-03T17:36:36.012Z,1.80
2023-05-03T17:39:05.252Z,1.20
2023-05-03T17:41:33.549Z,1.50
2023-05-03T17:44:03.477Z,1.63
2023-05-03T17:46:42.619Z,1.65
2023-05-03T17:49:11.841Z,1.48
2023-05-03T17:51:42.064Z,1.50
2023-05-03T17:54:12.425Z,1.80
2023-05-03T17:56:42.788Z,1.80
2023-05-03T17:59:11.526Z,1.75
2023-05-03T18:01:42.105Z,1.55
2023-05-03T18:04:11.552Z,1.63
2023-05-03T18:07:08.227Z,1.40
2023-05-03T18:09:40.781Z,2.10
2023-05-03T18:12:23.181Z,1.92
2023-05-03T18:15:05.944Z,1.48
2023-05-03T18:17:36.451Z,1.50
2023-05-03T18:20:09.708Z,1.40
2023-05-03T18:22:40.057Z,1.65
2023-05-03T18:25:10.613Z,1.92
2023-05-03T18:27:40.848Z,1.77
2023-05-03T18:30:11.896Z,1.40
2023-05-03T18:32:43.370Z,1.52
2023-05-03T18:35:12.030Z,1.35
2023-05-03T18:37:42.088Z,1.27
2023-05-03T18:40:12.962Z,1.40
2023-05-03T18:42:42.678Z,4.78
2023-05-03T18:45:12.085Z,1.70
2023-05-03T18:47:44.559Z,1.60
2023-05-03T18:50:14.628Z,1.85
2023-05-03T18:52:42.947Z,1.80
2023-05-03T18:55:12.418Z,1.67
2023-05-03T18:57:41.531Z,1.80
2023-05-03T19:00:11.600Z,2.42
2023-05-03T19:02:41.114Z,1.98
2023-05-03T19:05:14.257Z,1.83
2023-05-03T19:07:51.172Z,1.83
2023-05-03T19:10:24.560Z,1.98
2023-05-03T19:12:55.159Z,1.75
2023-05-03T19:15:26.291Z,1.73
2023-05-03T19:17:55.584Z,1.77
2023-05-03T19:20:27.934Z,1.83
2023-05-03T19:22:58.737Z,1.73
2023-05-03T19:25:33.464Z,1.50
2023-05-03T19:28:04.787Z,1.80
2023-05-03T19:30:36.177Z,2.17
2023-05-03T19:33:07.331Z,1.95
2023-05-03T19:35:42.446Z,1.83
2023-05-03T19:38:14.657Z,2.63
2023-05-03T19:40:44.155Z,1.90
2023-05-03T19:43:12.824Z,2.00
2023-05-03T19:45:45.117Z,2.03
2023-05-03T19:48:16.670Z,2.08
2023-05-03T19:50:48.243Z,1.77
2023-05-03T19:53:21.713Z,2.08
2023-05-03T19:55:58.774Z,1.88
2023-05-03T19:58:29.015Z,1.95
2023-05-03T20:01:01.158Z,2.10
2023-05-03T20:03:34.575Z,2.55
2023-05-03T20:06:05.940Z,2.30
2023-05-03T20:08:36.390Z,2.50
2023-05-03T20:11:05.927Z,2.33
2023-05-03T20:13:38.228Z,2.10
2023-05-03T20:16:12.411Z,2.65
2023-05-03T20:18:53.883Z,2.72
2023-05-03T20:21:23.838Z,2.38
2023-05-03T20:23:52.427Z,2.13
2023-05-03T20:26:28.860Z,2.47
2023-05-03T20:28:58.737Z,2.13
2023-05-03T20:31:31.704Z,2.60
2023-05-03T20:34:02.802Z,2.60
2023-05-03T20:36:38.344Z,2.38
2023-05-03T20:39:08.409Z,2.80
2023-05-03T20:41:43.667Z,2.35
2023-05-03T20:44:14.372Z,2.50
2023-05-03T20:46:43.385Z,2.83
2023-05-03T20:49:12.398Z,2.45
2023-05-03T20:51:49.490Z,2.72
2023-05-03T20:54:18.550Z,2.83
2023-05-03T20:57:09.817Z,2.80
2023-05-03T20:59:39.139Z,3.05
2023-05-03T21:02:10.827Z,3.05
2023-05-03T21:04:39.539Z,2.70
2023-05-03T21:07:14.438Z,2.92
2023-05-03T21:09:42.803Z,1.65
2023-05-03T21:12:11.903Z,2.15
2023-05-03T21:14:41.712Z,2.00
2023-05-03T21:17:12.606Z,2.15
2023-05-03T21:19:41.658Z,2.42
2023-05-03T21:22:15.344Z,2.47
2023-05-03T21:24:44.391Z,2.35
2023-05-03T21:27:12.512Z,2.30
2023-05-03T21:29:47.763Z,2.55
2023-05-03T21:34:50.199Z,2.25
2023-05-03T21:37:24.700Z,2.95
2023-05-03T21:40:01.377Z,2.70
2023-05-03T21:42:31.405Z,2.78
2023-05-03T21:45:01.648Z,2.75
2023-05-03T21:47:31.822Z,2.55
2023-05-03T21:53:03.754Z,3.03
2023-05-03T21:55:35.375Z,3.20
2023-05-03T21:58:03.796Z,2.80
2023-05-03T22:00:34.774Z,3.03
2023-05-03T22:03:05.338Z,3.00
2023-05-03T22:05:44.691Z,3.13
2023-05-03T22:08:21.071Z,2.83
2023-05-03T22:10:51.917Z,2.90
2023-05-03T22:13:32.655Z,2.90
2023-05-03T22:16:09.889Z,2.67
2023-05-03T22:18:39.476Z,2.90
2023-05-03T22:21:17.938Z,3.60
2023-05-03T22:23:56.498Z,2.65
2023-05-03T22:29:51.848Z,3.13
2023-05-03T22:32:26.140Z,2.58
2023-05-03T22:37:30.262Z,4.13
2023-05-03T22:40:15.516Z,3.15
2023-05-03T22:48:11.891Z,2.90
2023-05-03T22:50:43.540Z,3.30
2023-05-03T22:53:18.305Z,3.10
2023-05-03T22:55:56.058Z,3.17
2023-05-03T23:04:16.762Z,3.53
2023-05-03T23:06:49.224Z,3.22
2023-05-03T23:09:24.021Z,3.78
2023-05-03T23:12:04.031Z,3.40
2023-05-03T23:14:37.823Z,2.95
2023-05-03T23:17:09.344Z,3.67
2023-05-03T23:20:19.281Z,4.05
2023-05-03T23:22:47.423Z,3.17
2023-05-03T23:25:20.556Z,3.88
2023-05-03T23:28:14.636Z,4.13
2023-05-03T23:30:48.400Z,3.40
2023-05-03T23:33:20.699Z,3.20
2023-05-03T23:35:53.879Z,3.25
2023-05-03T23:38:23.905Z,3.05
2023-05-03T23:40:58.569Z,3.30
2023-05-03T23:44:18.470Z,3.20
2023-05-03T23:46:51.280Z,3.08
2023-05-03T23:49:35.549Z,3.17
2023-05-03T23:52:11.422Z,2.80
2023-05-03T23:54:39.679Z,3.45
2023-05-03T23:57:11.339Z,3.13
2023-05-03T23:59:42.530Z,3.10
